Aérodrome :
LOGIN :

S'inscrire | Disclaimer

   EN    FR    IT 

 










Légende :    VFR   VFR Marginal   IFR   IFR Intensif   IFR Très Intensif
Visi : 
Plafond : 
>= 8 km
>= 3000ft
5 à 8 km
1000 à 3000 ft
1500m à 5 km
500 à 1000 ft
800 à 1500m
200 à 500 ft
< 800m
< 200 ft
Symboles :   Orages  Brouillard  Fortes neiges  Fortes précipitations  Vent > 20 kt
SIGMETs :   Divers  Orages  Givrage  Turbulence  Onde Orograph.  Cendres Volcan.






- Altitude de l'aérodrome : 16 ft
- Code IATA : EAS


LESO - San Sebastian Fuenterrabia

DERNIER METAR :
  • 140130Z AUTO 30009KT 260V350 5000 RA BR SCT021 BKN033 OVC043 10/08 Q1003

METARs EXPIRÉS :
  • 140100Z AUTO 28012G27KT 220V340 6000 RA SCT021 BKN031 OVC040 10/08 Q1003
  • 140030Z AUTO 28013G27KT 230V360 5000 RA BR SCT019 BKN028 BKN042 10/09 Q1003
  • 140000Z AUTO 28014G28KT 210V330 3900 +RA BR FEW017 SCT041 BKN056 11/10 Q1003
  • 132330Z AUTO 23007KT 200V260 CAVOK 13/07 Q1002
  • 132300Z AUTO 24006KT 200V280 9999 BKN068 12/07 Q1002

TAF TAF LESO
Valide du 14 à 00h jusqu'au 15 à 00h UTC


132300Z 1400/1424 25008KT 9999 SCT020 BKN035 TX12/1414Z TN07/1406Z
TEMPO 1400/1409 27015G30KT
TEMPO 1400/1409 3000 RA SHRA SCT030TCU
PROB40
TEMPO 1400/1406 4500 -RA BKN010
PROB40
TEMPO 1403/1407 3000 SHRA TS BKN010 SCT030CB



MET'MAP, la Météo Aéronautique d'un coup d'oeil ! - Copyright ORBIFLY Décembre 2007 - Disclaimer

ORBIFLY MET'MAP TEAM :

Programmation & Développement : Alexandra Zaïnal
Conception & Développement : Baudouin d'Aumeries
Co-Programmation & Développement : Marc-Olivier Méhu
Soutien technique & logistique : Manuel Goepfert

Contact : metmap@orbifly.com




SOURCES & CREDITS :

   NOAA